Time;durP1;ratioP1;P1;durP2;ratioP2;P2;SDS_P1;SDS_P2;PMS_P1;PMS_P2;Temp;Humidity;BMP_temperature;BMP_pressure;BME280_temperature;BME280_humidity;BME280_pressure;Samples;Min_cycle;Max_cycle;Signal;HPM_P1;HPM_P2
2022/10/05 00:00:16;;;;;;;10.00;5.60;;;17.90;61.50;;;;;;5056436;28;20031;-81
2022/10/05 00:02:43;;;;;;;9.63;5.00;;;17.90;61.30;;;;;;5074770;28;20099;-80
2022/10/05 00:05:30;;;;;;;10.93;5.70;;;17.70;61.60;;;;;;5052827;28;20495;-81
2022/10/05 00:08:23;;;;;;;11.50;5.47;;;17.80;61.80;;;;;;5054540;28;20041;-80
2022/10/05 00:10:50;;;;;;;10.38;5.35;;;17.80;61.30;;;;;;5054123;28;20073;-80
2022/10/05 00:13:23;;;;;;;9.02;5.53;;;17.70;61.60;;;;;;5056178;28;20052;-80
2022/10/05 00:15:49;;;;;;;10.43;5.43;;;17.80;61.10;;;;;;5074197;28;20024;-80
2022/10/05 00:18:17;;;;;;;10.80;5.50;;;17.80;61.20;;;;;;5074622;28;20033;-81
2022/10/05 00:20:44;;;;;;;8.55;5.32;;;17.70;61.50;;;;;;5055156;28;20406;-79
2022/10/05 00:23:20;;;;;;;13.55;5.60;;;17.70;61.20;;;;;;5056931;28;20029;-81
2022/10/05 00:25:46;;;;;;;11.27;6.05;;;17.80;61.00;;;;;;5056444;28;20020;-80
2022/10/05 00:28:27;;;;;;;9.75;5.28;;;17.90;60.80;;;;;;5074204;28;20016;-81
2022/10/05 00:30:58;;;;;;;10.68;5.63;;;17.90;60.60;;;;;;5056005;28;20095;-80
2022/10/05 00:33:23;;;;;;;14.20;5.55;;;17.90;60.90;;;;;;5073745;28;20050;-81
2022/10/05 00:35:49;;;;;;;10.32;5.35;;;17.90;60.50;;;;;;5056986;28;20409;-80
2022/10/05 00:38:15;;;;;;;12.73;5.85;;;17.80;61.00;;;;;;5073964;28;20021;-80
2022/10/05 00:40:47;;;;;;;9.63;6.22;;;17.70;61.00;;;;;;5056091;28;20024;-81
2022/10/05 00:43:24;;;;;;;10.85;5.75;;;17.80;60.80;;;;;;5065254;28;20017;-81
2022/10/05 00:46:14;;;;;;;11.18;5.85;;;17.80;61.00;;;;;;5054055;28;20479;-78
2022/10/05 00:49:24;;;;;;;10.77;5.40;;;17.80;60.70;;;;;;5053728;28;20022;-80
2022/10/05 00:52:00;;;;;;;9.75;5.50;;;17.60;61.20;;;;;;5029089;28;20094;-79
2022/10/05 00:54:45;;;;;;;10.20;5.00;;;17.50;61.60;;;;;;5057229;28;20029;-81
2022/10/05 00:57:28;;;;;;;10.75;5.60;;;17.50;61.90;;;;;;5053730;28;20024;-80
2022/10/05 01:00:05;;;;;;;8.10;5.32;;;17.50;61.60;;;;;;5053720;28;20025;-81
2022/10/05 01:02:49;;;;;;;10.98;5.15;;;17.40;61.90;;;;;;5053103;28;20036;-81
2022/10/05 01:05:35;;;;;;;8.15;5.07;;;17.30;61.70;;;;;;5059031;28;20036;-80
2022/10/05 01:08:17;;;;;;;12.13;5.55;;;17.40;61.90;;;;;;5049924;28;20032;-80
2022/10/05 01:11:10;;;;;;;11.38;5.68;;;17.50;61.50;;;;;;5073496;28;20056;-81
2022/10/05 01:13:44;;;;;;;11.15;5.38;;;17.70;61.00;;;;;;5073211;28;20040;-80
2022/10/05 01:16:27;;;;;;;8.93;5.30;;;17.70;61.00;;;;;;5073185;28;20029;-80
2022/10/05 01:19:18;;;;;;;8.80;5.65;;;17.60;61.10;;;;;;5055677;28;20078;-82
2022/10/05 01:22:18;;;;;;;10.65;5.82;;;17.50;60.90;;;;;;5055174;28;20024;-81
2022/10/05 01:25:05;;;;;;;9.40;5.60;;;17.40;61.60;;;;;;5051657;28;20127;-81
2022/10/05 01:27:49;;;;;;;13.02;5.30;;;17.30;61.30;;;;;;5073034;28;20493;-80
2022/10/05 01:30:20;;;;;;;8.07;5.32;;;17.40;61.10;;;;;;5087772;28;20093;-81
2022/10/05 01:33:14;;;;;;;8.90;5.22;;;17.40;61.40;;;;;;5055013;28;20428;-82
2022/10/05 01:36:12;;;;;;;9.52;5.82;;;17.30;61.40;;;;;;5055464;28;20055;-81
2022/10/05 01:38:48;;;;;;;8.20;5.20;;;17.20;62.00;;;;;;5011035;28;20485;-81
2022/10/05 01:41:27;;;;;;;9.23;5.40;;;17.10;61.90;;;;;;4994402;28;20037;-80
2022/10/05 01:43:58;;;;;;;7.28;4.65;;;17.30;61.60;;;;;;4995291;28;20432;-82
2022/10/05 01:46:35;;;;;;;11.05;4.63;;;17.30;61.30;;;;;;4993735;28;20073;-82
2022/10/05 01:49:21;;;;;;;7.22;4.50;;;17.40;61.90;;;;;;5011432;28;20038;-80
2022/10/05 01:52:02;;;;;;;7.57;4.68;;;17.40;61.40;;;;;;5011350;28;20057;-81
2022/10/05 01:54:39;;;;;;;;;;;17.40;61.90;;;;;;5011257;28;20100;-81
2022/10/05 01:57:26;;;;;;;9.10;5.00;;;17.40;61.50;;;;;;5011239;28;19905;-80
2022/10/05 02:00:11;;;;;;;8.85;4.72;;;17.50;61.20;;;;;;5011047;28;20034;-81
2022/10/05 02:02:57;;;;;;;8.80;4.90;;;17.60;60.40;;;;;;5011031;28;20026;-81
2022/10/05 02:05:34;;;;;;;9.90;5.10;;;17.50;60.60;;;;;;5010594;28;20493;-81
2022/10/05 02:08:07;;;;;;;11.23;5.97;;;17.30;61.50;;;;;;5010872;28;20121;-81
2022/10/05 02:10:57;;;;;;;9.43;5.35;;;17.20;61.30;;;;;;5011141;28;20034;-82
2022/10/05 02:13:35;;;;;;;10.15;5.35;;;17.30;60.90;;;;;;5006740;28;20029;-81
2022/10/05 02:16:15;;;;;;;10.50;5.00;;;17.40;60.70;;;;;;5052487;28;20036;-80
2022/10/05 02:18:49;;;;;;;7.72;4.90;;;17.50;60.50;;;;;;5068020;28;20433;-83
2022/10/05 02:21:15;;;;;;;8.60;4.88;;;17.50;60.30;;;;;;5068361;28;20041;-82
2022/10/05 02:23:42;;;;;;;9.90;4.68;;;17.40;60.50;;;;;;5062582;28;20036;-80
2022/10/05 02:26:11;;;;;;;7.38;5.15;;;17.30;60.60;;;;;;5072555;28;20021;-80
2022/10/05 02:28:54;;;;;;;9.45;4.80;;;17.30;60.80;;;;;;5072470;28;20027;-81
2022/10/05 02:31:46;;;;;;;8.20;4.80;;;17.30;61.00;;;;;;5087446;28;20067;-83
2022/10/05 02:34:26;;;;;;;9.70;4.88;;;17.50;60.10;;;;;;5053833;28;20426;-80
2022/10/05 02:37:26;;;;;;;12.15;5.45;;;17.30;60.30;;;;;;5071388;28;20083;-83
2022/10/05 02:40:03;;;;;;;8.38;4.93;;;17.20;60.50;;;;;;5049953;28;20043;-81
2022/10/05 02:42:36;;;;;;;9.45;4.90;;;17.20;61.10;;;;;;5033603;28;20468;-82
2022/10/05 02:45:28;;;;;;;8.25;5.13;;;17.30;60.20;;;;;;5052975;28;20052;-81
2022/10/05 02:48:31;;;;;;;9.57;5.03;;;17.20;60.30;;;;;;5053984;28;20029;-83
2022/10/05 02:51:02;;;;;;;11.13;6.13;;;17.10;60.10;;;;;;5037270;28;20507;-81
2022/10/05 02:53:28;;;;;;;11.75;5.10;;;17.10;60.40;;;;;;5054332;28;20029;-82
2022/10/05 02:56:02;;;;;;;9.68;4.95;;;17.30;60.00;;;;;;5053435;28;20040;-82
2022/10/05 02:58:34;;;;;;;7.93;4.72;;;17.30;59.90;;;;;;5053856;28;20161;-80
2022/10/05 03:01:15;;;;;;;9.05;5.45;;;17.40;59.80;;;;;;5053958;28;20160;-81
2022/10/05 03:03:55;;;;;;;9.80;5.68;;;17.40;59.60;;;;;;5054077;28;20033;-81
2022/10/05 03:06:27;;;;;;;7.95;5.10;;;17.30;59.80;;;;;;5053956;28;20071;-81
2022/10/05 03:09:04;;;;;;;11.00;5.65;;;17.30;59.80;;;;;;5053952;28;20116;-81
2022/10/05 03:11:50;;;;;;;10.65;5.13;;;17.30;59.50;;;;;;5053697;28;20021;-81
2022/10/05 03:14:17;;;;;;;11.20;5.75;;;17.20;59.90;;;;;;5054045;28;20025;-79
2022/10/05 03:17:07;;;;;;;9.57;6.15;;;17.10;60.40;;;;;;5064060;28;20048;-81
2022/10/05 03:20:05;;;;;;;13.30;5.65;;;17.00;60.70;;;;;;5058189;28;20434;-81
2022/10/05 03:22:48;;;;;;;8.98;5.60;;;17.10;60.80;;;;;;5057861;28;20179;-82
2022/10/05 03:25:39;;;;;;;9.40;5.43;;;17.20;60.50;;;;;;5057482;28;20036;-82
2022/10/05 03:28:35;;;;;;;8.50;5.13;;;17.20;60.70;;;;;;5075202;28;20063;-81
2022/10/05 03:31:43;;;;;;;7.60;5.07;;;17.30;60.80;;;;;;5074647;28;20045;-80
2022/10/05 03:34:19;;;;;;;9.07;5.20;;;17.30;60.10;;;;;;5057309;28;20035;-82
2022/10/05 03:36:50;;;;;;;12.15;5.68;;;17.10;60.60;;;;;;5074364;28;20375;-82
2022/10/05 03:39:26;;;;;;;9.43;5.45;;;17.20;60.40;;;;;;5062822;28;20025;-82
2022/10/05 03:42:27;;;;;;;12.20;6.15;;;17.30;60.00;;;;;;5037056;28;20506;-82
2022/10/05 03:45:04;;;;;;;10.50;5.65;;;17.40;59.80;;;;;;5013587;28;20098;-81
2022/10/05 03:47:51;;;;;;;12.38;5.90;;;17.50;59.20;;;;;;5013389;28;20072;-82
2022/10/05 03:50:35;;;;;;;12.15;6.43;;;17.30;59.60;;;;;;5017358;28;20061;-82
2022/10/05 03:53:14;;;;;;;11.07;5.85;;;17.30;59.40;;;;;;5033861;28;20033;-82
2022/10/05 03:55:47;;;;;;;9.77;5.60;;;17.20;58.90;;;;;;5033271;28;20094;-83
2022/10/05 03:58:19;;;;;;;9.57;5.65;;;17.10;59.00;;;;;;5020702;28;20547;-83
2022/10/05 04:00:50;;;;;;;12.82;6.55;;;17.10;58.80;;;;;;5032948;28;20037;-82
2022/10/05 04:03:47;;;;;;;14.05;6.35;;;17.10;58.80;;;;;;5033175;28;20048;-82
2022/10/05 04:06:24;;;;;;;12.25;5.43;;;17.00;58.70;;;;;;5030202;28;20041;-84
2022/10/05 04:09:15;;;;;;;10.48;5.68;;;16.80;58.90;;;;;;5032776;28;20492;-83
2022/10/05 04:11:51;;;;;;;9.60;6.65;;;16.70;59.40;;;;;;5009178;28;20484;-85
2022/10/05 04:14:49;;;;;;;12.05;6.47;;;16.60;60.60;;;;;;4996432;28;20029;-83
2022/10/05 04:17:36;;;;;;;14.02;6.22;;;16.70;60.50;;;;;;4999334;28;20119;-82
2022/10/05 04:20:23;;;;;;;11.38;6.20;;;16.80;60.60;;;;;;5055776;28;20036;-83
2022/10/05 04:23:03;;;;;;;10.15;5.63;;;16.80;61.00;;;;;;5074910;28;20033;-82
2022/10/05 04:25:38;;;;;;;10.90;6.00;;;16.90;60.60;;;;;;5074556;28;20032;-80
2022/10/05 04:28:33;;;;;;;11.55;6.18;;;16.80;60.50;;;;;;5054375;28;20044;-83
2022/10/05 04:31:02;;;;;;;9.88;6.15;;;16.80;60.70;;;;;;5083669;28;20475;-83
2022/10/05 04:33:28;;;;;;;13.45;6.32;;;16.90;60.50;;;;;;5056344;28;20025;-83
2022/10/05 04:35:56;;;;;;;11.85;7.40;;;16.90;60.40;;;;;;5074773;28;20045;-84
2022/10/05 04:39:01;;;;;;;10.20;6.10;;;16.90;60.60;;;;;;5055859;28;20064;-85
2022/10/05 04:41:32;;;;;;;14.18;6.90;;;16.90;61.00;;;;;;5074525;28;20036;-82
2022/10/05 04:44:28;;;;;;;15.30;6.82;;;16.80;61.00;;;;;;5073809;28;20028;-85
2022/10/05 04:47:03;;;;;;;14.50;6.32;;;16.90;61.10;;;;;;5036295;28;20036;-82
2022/10/05 04:49:34;;;;;;;20.13;6.75;;;17.00;60.60;;;;;;5054146;28;20388;-83
2022/10/05 04:52:09;;;;;;;8.98;6.15;;;17.00;60.80;;;;;;5063924;28;20032;-81
2022/10/05 04:54:56;;;;;;;14.57;7.28;;;16.80;61.00;;;;;;5073932;28;20028;-82
2022/10/05 04:57:48;;;;;;;23.20;8.45;;;16.20;62.90;;;;;;5068769;28;20039;-86
2022/10/05 05:00:25;;;;;;;13.50;7.22;;;16.40;62.10;;;;;;5073201;28;20118;-83
2022/10/05 05:03:08;;;;;;;13.18;7.28;;;16.80;61.20;;;;;;5073461;28;20032;-83
2022/10/05 05:05:50;;;;;;;10.65;6.60;;;17.00;60.60;;;;;;5072699;28;20028;-83
2022/10/05 05:08:37;;;;;;;11.85;5.63;;;17.10;60.20;;;;;;5060212;28;20054;-83
2022/10/05 05:11:25;;;;;;;7.90;4.95;;;16.90;59.70;;;;;;5055506;28;20028;-82
2022/10/05 05:14:41;;;;;;;10.95;5.40;;;16.90;60.00;;;;;;5055604;28;20024;-83
2022/10/05 05:17:21;;;;;;;8.45;5.20;;;16.80;59.50;;;;;;5004591;28;20029;-83
2022/10/05 05:20:06;;;;;;;11.50;5.22;;;16.90;59.40;;;;;;4983081;28;20092;-84
2022/10/05 05:22:34;;;;;;;8.13;4.93;;;17.00;58.80;;;;;;5009274;28;20138;-83
2022/10/05 05:25:29;;;;;;;11.50;6.50;;;17.10;58.80;;;;;;4977232;28;20034;-86
2022/10/05 05:28:05;;;;;;;8.75;5.15;;;17.30;58.60;;;;;;4988273;28;20113;-81
2022/10/05 05:31:03;;;;;;;8.07;5.07;;;16.40;59.00;;;;;;5009631;28;20046;-83
2022/10/05 05:33:32;;;;;;;10.68;6.45;;;15.50;62.50;;;;;;4934414;29;20083;-82
2022/10/05 05:36:38;;;;;;;15.20;6.80;;;15.70;62.20;;;;;;4927309;29;20037;-80
2022/10/05 05:39:32;;;;;;;41.08;7.30;;;16.20;61.40;;;;;;4913560;29;20068;-82
2022/10/05 05:42:10;;;;;;;11.85;6.43;;;16.40;61.50;;;;;;4914985;29;20496;-82
2022/10/05 05:44:46;;;;;;;19.50;6.55;;;16.60;61.00;;;;;;4927117;29;20032;-79
2022/10/05 05:47:34;;;;;;;26.73;7.00;;;16.70;60.40;;;;;;4919346;29;20110;-82
2022/10/05 05:50:39;;;;;;;29.58;6.63;;;16.70;60.30;;;;;;4914217;29;20075;-81
2022/10/05 05:53:17;;;;;;;25.27;6.60;;;16.80;60.20;;;;;;4929831;28;20039;-81
2022/10/05 05:55:59;;;;;;;11.15;6.78;;;16.80;60.20;;;;;;4970964;28;20481;-85
2022/10/05 05:58:36;;;;;;;9.50;5.57;;;16.90;59.90;;;;;;4972051;28;20057;-82
2022/10/05 06:01:22;;;;;;;10.32;6.25;;;17.00;59.40;;;;;;4969990;28;20732;-82
2022/10/05 06:03:59;;;;;;;13.43;6.97;;;17.10;59.50;;;;;;4963382;28;20039;-84
2022/10/05 06:06:31;;;;;;;13.60;7.63;;;17.20;59.30;;;;;;4971461;28;20022;-86
2022/10/05 06:09:01;;;;;;;20.42;10.65;;;17.20;59.60;;;;;;4998369;28;20030;-86
2022/10/05 06:11:31;;;;;;;13.00;8.40;;;17.40;59.40;;;;;;5035082;28;20036;-84
2022/10/05 06:14:03;;;;;;;17.13;7.35;;;17.50;59.50;;;;;;5034248;28;20021;-84
2022/10/05 06:16:46;;;;;;;14.55;7.00;;;17.40;59.60;;;;;;5034629;28;20082;-86
2022/10/05 06:19:19;;;;;;;24.35;15.45;;;17.10;60.10;;;;;;5049963;28;20064;-84
2022/10/05 06:21:53;;;;;;;31.27;18.33;;;17.10;60.20;;;;;;5064422;28;20039;-81
2022/10/05 06:24:57;;;;;;;18.38;12.93;;;17.10;60.60;;;;;;5054881;28;20020;-82
2022/10/05 06:27:24;;;;;;;13.75;7.68;;;17.20;60.50;;;;;;5034765;28;20029;-82
2022/10/05 06:30:16;;;;;;;13.23;7.63;;;17.20;60.60;;;;;;5041517;28;20061;-81
2022/10/05 06:32:51;;;;;;;13.18;7.07;;;17.30;60.70;;;;;;5058915;28;20490;-81
2022/10/05 06:35:37;;;;;;;12.80;8.13;;;17.30;61.50;;;;;;5077241;28;20035;-81
2022/10/05 06:38:24;;;;;;;12.25;7.10;;;17.40;60.90;;;;;;5035680;28;20025;-82
2022/10/05 06:41:20;;;;;;;10.70;6.60;;;17.70;60.60;;;;;;5036359;28;20037;-80
2022/10/05 06:44:08;;;;;;;11.60;6.43;;;17.80;60.00;;;;;;5054025;28;20051;-84
2022/10/05 06:46:44;;;;;;;11.32;6.40;;;18.00;60.30;;;;;;5056435;28;20032;-82
2022/10/05 06:49:16;;;;;;;11.77;5.90;;;17.90;60.20;;;;;;5037785;28;20025;-82
2022/10/05 06:51:56;;;;;;;8.27;5.28;;;17.70;60.90;;;;;;5054053;28;20063;-81
2022/10/05 06:54:35;;;;;;;10.55;5.20;;;17.50;61.00;;;;;;5048144;28;20455;-86
2022/10/05 06:57:22;;;;;;;9.90;5.63;;;17.70;61.30;;;;;;5043700;28;20043;-85
2022/10/05 07:00:16;;;;;;;8.73;5.95;;;18.10;60.10;;;;;;5056445;28;20083;-83
2022/10/05 07:03:02;;;;;;;8.25;5.78;;;18.50;59.40;;;;;;5042470;28;20043;-80
2022/10/05 07:05:40;;;;;;;9.98;6.38;;;18.60;58.70;;;;;;5055957;28;20067;-80
2022/10/05 07:08:36;;;;;;;8.95;5.90;;;18.40;59.60;;;;;;5055689;28;20487;-85
2022/10/05 07:11:23;;;;;;;9.23;6.00;;;18.00;60.40;;;;;;5055666;28;20118;-80
2022/10/05 07:14:22;;;;;;;8.63;5.25;;;18.10;60.70;;;;;;5053888;28;20044;-80
2022/10/05 07:17:18;;;;;;;8.55;6.07;;;18.10;60.10;;;;;;4978001;28;20034;-84
2022/10/05 07:20:13;;;;;;;9.18;5.97;;;17.80;61.20;;;;;;4975321;28;20121;-80
2022/10/05 07:23:15;;;;;;;9.90;6.90;;;18.20;60.90;;;;;;4992927;28;20445;-85
2022/10/05 07:25:58;;;;;;;9.32;5.80;;;18.80;60.10;;;;;;4997067;28;20037;-83
2022/10/05 07:28:31;;;;;;;8.85;5.90;;;18.50;60.50;;;;;;4992988;28;20037;-80
2022/10/05 07:31:08;;;;;;;12.70;6.07;;;18.30;61.80;;;;;;4992077;28;20592;-80
2022/10/05 07:33:50;;;;;;;10.10;5.78;;;18.70;61.10;;;;;;4992696;28;20508;-80
2022/10/05 07:39:39;;;;;;;9.52;5.28;;;19.30;59.60;;;;;;5004459;28;20125;-81
2022/10/05 07:42:17;;;;;;;7.63;5.22;;;19.10;60.60;;;;;;4977609;28;20133;-83
2022/10/05 07:44:51;;;;;;;9.57;5.13;;;18.80;60.80;;;;;;4983894;28;20090;-81
2022/10/05 07:47:39;;;;;;;7.53;4.90;;;19.10;60.20;;;;;;5011733;28;20113;-81
2022/10/05 07:50:25;;;;;;;7.40;4.82;;;18.70;60.70;;;;;;5013305;28;20025;-84
2022/10/05 07:52:57;;;;;;;9.10;4.80;;;18.50;62.20;;;;;;4973786;28;20559;-82
2022/10/05 07:55:36;;;;;;;6.93;4.65;;;18.30;62.60;;;;;;5035286;28;20025;-84
2022/10/05 07:58:23;;;;;;;6.25;4.35;;;18.40;62.10;;;;;;5063665;28;20041;-81
2022/10/05 08:01:11;;;;;;;8.32;5.03;;;18.60;62.50;;;;;;5056560;28;20466;-82
2022/10/05 08:04:03;;;;;;;8.13;4.45;;;19.00;62.00;;;;;;5054419;28;20072;-81
2022/10/05 08:06:56;;;;;;;9.32;4.53;;;19.20;61.30;;;;;;5050557;28;20025;-84
2022/10/05 08:09:50;;;;;;;8.13;4.80;;;19.50;61.60;;;;;;5049529;28;20428;-81
2022/10/05 08:12:31;;;;;;;9.68;5.07;;;19.90;61.00;;;;;;5033235;28;20558;-79
2022/10/05 08:14:59;;;;;;;9.77;4.57;;;20.30;59.20;;;;;;5068817;28;20036;-84
2022/10/05 08:17:34;;;;;;;7.97;4.50;;;19.90;58.60;;;;;;5038045;28;20025;-80
2022/10/05 08:20:27;;;;;;;11.55;4.88;;;19.60;60.00;;;;;;5052851;28;20029;-81
2022/10/05 08:23:07;;;;;;;8.52;5.22;;;20.00;59.40;;;;;;5036900;28;20052;-81
2022/10/05 08:25:42;;;;;;;8.77;5.40;;;20.20;58.90;;;;;;5054314;28;20033;-83
2022/10/05 08:28:25;;;;;;;11.07;5.43;;;20.00;59.20;;;;;;5053707;28;20104;-82
2022/10/05 08:31:30;;;;;;;9.20;5.82;;;20.30;58.80;;;;;;5065282;28;20052;-82
2022/10/05 08:34:20;;;;;;;9.52;5.63;;;20.70;58.30;;;;;;5071352;28;20056;-79
2022/10/05 08:36:58;;;;;;;9.45;5.75;;;20.90;58.50;;;;;;5094137;28;20077;-83
2022/10/05 08:39:28;;;;;;;9.15;5.57;;;21.00;58.10;;;;;;5094202;28;20416;-83
2022/10/05 08:42:22;;;;;;;8.63;4.80;;;20.80;57.90;;;;;;5075919;28;20489;-85
2022/10/05 08:45:20;;;;;;;8.75;5.05;;;20.20;59.10;;;;;;5094258;28;20024;-85
2022/10/05 08:48:08;;;;;;;9.40;4.95;;;20.40;59.80;;;;;;5013263;28;20366;-83
2022/10/05 08:50:57;;;;;;;8.05;4.70;;;20.60;59.20;;;;;;5012278;28;20045;-84
2022/10/05 08:53:58;;;;;;;6.93;4.60;;;20.60;59.50;;;;;;5012490;28;20419;-82
2022/10/05 08:56:55;;;;;;;8.77;5.40;;;20.30;59.20;;;;;;5013220;28;20049;-83
2022/10/05 08:59:45;;;;;;;11.98;6.05;;;20.10;59.80;;;;;;4956317;28;20089;-81
2022/10/05 09:02:25;;;;;;;8.90;5.80;;;20.80;59.30;;;;;;4972413;28;20046;-82
2022/10/05 09:04:57;;;;;;;8.70;5.18;;;21.40;58.40;;;;;;4972728;28;20094;-81
2022/10/05 09:07:56;;;;;;;7.22;4.75;;;21.60;57.30;;;;;;4972994;28;20105;-85
2022/10/05 09:11:02;;;;;;;10.63;5.38;;;21.50;57.90;;;;;;4974091;28;20122;-83
2022/10/05 09:13:36;;;;;;;8.35;5.70;;;21.90;58.70;;;;;;4971295;28;20026;-90
2022/10/05 09:16:37;;;;;;;10.23;6.28;;;21.60;57.60;;;;;;4956785;28;20114;-85
2022/10/05 09:19:21;;;;;;;8.57;5.30;;;21.80;58.20;;;;;;4971402;28;20069;-85
2022/10/05 09:21:57;;;;;;;9.02;5.30;;;22.10;58.00;;;;;;4956561;28;20575;-88
2022/10/05 09:24:26;;;;;;;9.02;5.30;;;22.40;57.70;;;;;;4992479;28;20059;-84
2022/10/05 09:27:16;;;;;;;9.00;5.47;;;22.50;56.60;;;;;;5011681;28;20065;-84
2022/10/05 09:30:21;;;;;;;10.48;5.18;;;22.50;56.40;;;;;;5011205;28;20078;-83
2022/10/05 09:33:05;;;;;;;10.45;6.15;;;22.70;56.60;;;;;;5011488;28;20116;-85
2022/10/05 09:36:01;;;;;;;9.57;5.50;;;22.00;57.70;;;;;;5016529;28;20085;-81
2022/10/05 09:38:37;;;;;;;11.50;6.50;;;21.80;57.60;;;;;;5093034;28;20568;-81
2022/10/05 09:41:21;;;;;;;9.02;6.10;;;21.70;59.10;;;;;;5093500;28;20028;-83
2022/10/05 09:43:53;;;;;;;11.60;6.40;;;22.00;58.00;;;;;;5093114;28;20028;-83
2022/10/05 09:46:46;;;;;;;11.85;6.03;;;22.50;58.00;;;;;;5093510;28;20020;-84
2022/10/05 09:49:40;;;;;;;10.25;5.80;;;22.70;56.50;;;;;;5075553;28;20130;-82
2022/10/05 09:52:32;;;;;;;8.98;6.20;;;22.30;57.70;;;;;;5075189;28;20466;-84
2022/10/05 09:55:07;;;;;;;11.95;6.00;;;22.20;57.80;;;;;;5092709;28;20028;-83
2022/10/05 09:57:59;;;;;;;8.45;5.50;;;22.60;57.90;;;;;;5075494;28;20039;-84
2022/10/05 10:00:41;;;;;;;8.38;5.63;;;22.80;56.60;;;;;;5093830;28;20060;-84
2022/10/05 10:03:32;;;;;;;11.65;5.60;;;22.60;57.20;;;;;;5093705;28;20031;-86
2022/10/05 10:06:18;;;;;;;10.13;5.43;;;22.40;57.80;;;;;;5093170;28;20020;-83
2022/10/05 10:09:05;;;;;;;9.18;5.53;;;22.80;57.70;;;;;;5109200;28;20414;-84
2022/10/05 10:12:07;;;;;;;10.18;6.22;;;23.40;56.80;;;;;;5094311;28;20550;-83
2022/10/05 10:14:51;;;;;;;10.68;6.30;;;24.00;54.90;;;;;;5011653;28;20037;-82
2022/10/05 10:18:02;;;;;;;7.32;5.35;;;24.40;55.50;;;;;;5011232;28;20053;-84
2022/10/05 10:20:46;;;;;;;10.70;5.75;;;23.70;54.70;;;;;;4991418;28;20069;-84
2022/10/05 10:23:20;;;;;;;8.40;5.05;;;23.60;56.50;;;;;;4975293;28;20023;-84
2022/10/05 10:26:15;;;;;;;9.07;5.22;;;23.80;55.70;;;;;;4975138;28;20138;-83
2022/10/05 10:29:03;;;;;;;7.18;4.97;;;23.90;55.50;;;;;;4975882;28;20026;-86
2022/10/05 10:31:35;;;;;;;10.13;5.13;;;24.00;54.40;;;;;;4991915;28;20073;-85
2022/10/05 10:34:46;;;;;;;9.30;5.22;;;24.00;54.90;;;;;;4991505;28;20039;-84
2022/10/05 10:37:37;;;;;;;10.07;5.32;;;24.10;55.30;;;;;;4953166;29;20122;-85
2022/10/05 10:40:40;;;;;;;10.38;4.90;;;24.40;54.60;;;;;;4937074;29;20075;-85
2022/10/05 10:43:21;;;;;;;8.77;5.22;;;24.90;54.50;;;;;;4952796;29;20035;-86
2022/10/05 10:46:24;;;;;;;9.88;4.72;;;25.00;54.60;;;;;;4936635;29;20035;-85
2022/10/05 10:49:13;;;;;;;9.73;5.25;;;25.20;53.50;;;;;;4895722;29;20188;-84
2022/10/05 10:51:57;;;;;;;8.00;4.75;;;25.30;53.20;;;;;;4893847;29;20104;-90
2022/10/05 10:54:31;;;;;;;7.68;4.90;;;25.70;53.30;;;;;;4895583;29;20039;-80
2022/10/05 10:57:03;;;;;;;9.50;4.72;;;26.00;52.90;;;;;;4904620;29;20086;-81
2022/10/05 10:59:58;;;;;;;8.77;4.78;;;26.20;51.80;;;;;;4916522;29;20064;-84
2022/10/05 11:02:25;;;;;;;7.88;4.70;;;25.80;53.30;;;;;;4930228;29;20135;-85
2022/10/05 11:05:12;;;;;;;10.18;5.22;;;25.80;53.00;;;;;;4930209;29;20040;-82
2022/10/05 11:08:13;;;;;;;9.98;4.90;;;25.80;52.20;;;;;;4917630;29;20103;-85
2022/10/05 11:11:05;;;;;;;9.68;5.53;;;25.60;52.10;;;;;;4902483;29;20021;-84
2022/10/05 11:13:40;;;;;;;10.57;4.95;;;25.00;53.60;;;;;;4935914;28;20408;-84
2022/10/05 11:16:06;;;;;;;6.65;4.65;;;25.00;53.00;;;;;;5027883;28;20104;-84
2022/10/05 11:18:49;;;;;;;5.82;4.38;;;25.10;52.80;;;;;;5014221;28;20050;-84
2022/10/05 11:21:54;;;;;;;6.53;4.50;;;24.90;52.90;;;;;;5030409;28;20414;-85
2022/10/05 11:24:53;;;;;;;8.52;4.70;;;25.30;53.50;;;;;;5066849;28;20032;-91
2022/10/05 11:27:42;;;;;;;8.88;5.60;;;25.30;52.00;;;;;;5077994;28;20064;-84
2022/10/05 11:30:36;;;;;;;11.32;4.97;;;24.80;53.70;;;;;;5095502;28;20068;-83
2022/10/05 11:33:17;;;;;;;7.05;4.55;;;25.10;52.30;;;;;;5077957;28;20038;-85
2022/10/05 11:35:54;;;;;;;8.13;4.43;;;25.20;52.40;;;;;;5095928;28;20400;-84
2022/10/05 11:38:37;;;;;;;7.55;4.68;;;25.60;52.40;;;;;;5095892;28;20446;-85
2022/10/05 11:41:31;;;;;;;8.82;4.93;;;25.50;52.70;;;;;;5077529;28;20543;-85
2022/10/05 11:44:12;;;;;;;9.07;5.03;;;25.70;52.40;;;;;;5077946;28;20024;-84
2022/10/05 11:47:02;;;;;;;8.35;4.95;;;25.80;52.30;;;;;;5095466;28;20032;-85
2022/10/05 11:49:55;;;;;;;8.23;4.82;;;25.90;52.40;;;;;;5077526;28;20029;-81
2022/10/05 11:52:54;;;;;;;9.48;5.07;;;25.80;52.30;;;;;;5095082;28;20474;-89
2022/10/05 11:55:37;;;;;;;9.27;5.22;;;25.80;51.90;;;;;;5076990;28;20042;-83
2022/10/05 11:58:22;;;;;;;9.95;5.28;;;25.90;52.10;;;;;;5077323;28;20038;-84
2022/10/05 12:01:20;;;;;;;8.85;5.20;;;25.80;52.40;;;;;;5095332;28;20066;-83
2022/10/05 12:04:16;;;;;;;10.00;5.70;;;25.60;52.50;;;;;;5077016;28;20043;-83
2022/10/05 12:07:23;;;;;;;8.02;5.13;;;25.80;52.80;;;;;;5060574;28;20364;-87
2022/10/05 12:10:13;;;;;;;8.45;5.30;;;25.70;52.50;;;;;;5013394;28;20022;-83
2022/10/05 12:12:50;;;;;;;8.43;5.20;;;25.50;53.40;;;;;;5014244;28;20096;-83
2022/10/05 12:16:02;;;;;;;9.38;5.47;;;25.30;53.20;;;;;;5012706;28;20026;-82
2022/10/05 12:18:30;;;;;;;8.13;4.88;;;25.80;53.50;;;;;;4992897;28;20117;-88
2022/10/05 12:21:21;;;;;;;9.73;5.60;;;25.70;53.60;;;;;;4993260;28;20049;-87
2022/10/05 12:23:53;;;;;;;9.05;5.85;;;25.70;52.50;;;;;;4992774;28;20038;-81
2022/10/05 12:26:49;;;;;;;8.60;4.82;;;25.80;52.30;;;;;;4977878;28;20117;-83
2022/10/05 12:29:34;;;;;;;10.18;4.72;;;26.00;52.80;;;;;;4977042;28;20026;-81
2022/10/05 12:32:11;;;;;;;7.03;3.80;;;26.00;51.70;;;;;;4993159;28;20042;-83
2022/10/05 12:34:54;;;;;;;7.80;3.78;;;26.30;50.60;;;;;;4976861;28;20109;-81
2022/10/05 12:37:37;;;;;;;7.90;4.03;;;26.40;51.30;;;;;;4976372;28;20049;-81
2022/10/05 12:40:28;;;;;;;5.75;4.00;;;26.30;51.60;;;;;;4992891;28;20026;-80
2022/10/05 12:43:21;;;;;;;8.93;3.97;;;26.00;52.30;;;;;;4983030;28;20057;-88
2022/10/05 12:46:20;;;;;;;8.50;3.60;;;26.00;51.50;;;;;;5015278;28;20026;-82
2022/10/05 12:49:07;;;;;;;7.93;3.80;;;25.80;50.50;;;;;;5015599;28;20029;-81
2022/10/05 12:51:50;;;;;;;5.68;3.60;;;25.80;50.30;;;;;;5015533;28;20025;-83
2022/10/05 12:54:37;;;;;;;6.32;3.88;;;25.90;51.60;;;;;;5069636;28;20028;-82
2022/10/05 12:57:23;;;;;;;7.05;4.50;;;26.20;52.70;;;;;;5094438;28;20053;-83
2022/10/05 13:00:01;;;;;;;6.93;3.05;;;26.20;52.80;;;;;;5012300;28;20497;-83
2022/10/05 13:02:42;;;;;;;4.85;3.13;;;26.00;49.80;;;;;;5012652;28;20086;-84
2022/10/05 13:05:17;;;;;;;5.53;3.28;;;25.50;50.20;;;;;;5013458;28;20084;-83
2022/10/05 13:07:49;;;;;;;5.22;3.58;;;24.80;51.50;;;;;;5013303;28;20038;-85
2022/10/05 13:10:32;;;;;;;6.32;3.13;;;24.30;51.80;;;;;;5012268;28;20480;-84
2022/10/05 13:13:35;;;;;;;7.50;3.10;;;24.60;50.70;;;;;;5012588;28;20068;-84
2022/10/05 13:16:24;;;;;;;5.05;3.40;;;25.00;50.70;;;;;;5012286;28;20022;-82
2022/10/05 13:18:50;;;;;;;6.60;3.10;;;25.10;50.30;;;;;;4992314;28;20053;-83
2022/10/05 13:21:26;;;;;;;6.45;3.60;;;25.20;51.40;;;;;;5012310;28;20125;-83
2022/10/05 13:24:22;;;;;;;6.43;3.90;;;25.40;50.50;;;;;;5012846;28;20133;-82
2022/10/05 13:27:12;;;;;;;7.10;3.40;;;25.20;50.70;;;;;;4992084;28;20574;-83
2022/10/05 13:29:46;;;;;;;7.28;4.00;;;25.50;51.50;;;;;;4991510;28;20493;-82
2022/10/05 13:32:47;;;;;;;8.35;5.13;;;25.90;51.30;;;;;;4992127;28;20071;-84
2022/10/05 13:35:43;;;;;;;8.10;4.70;;;25.40;52.40;;;;;;4953537;28;20032;-86
2022/10/05 13:38:23;;;;;;;8.85;5.93;;;24.90;53.60;;;;;;4912930;29;20036;-84
2022/10/05 13:40:49;;;;;;;;;;;24.60;54.10;;;;;;4913506;29;20543;-89
2022/10/05 13:43:26;;;;;;;9.77;6.00;;;24.20;55.00;;;;;;4912473;29;19913;-89
2022/10/05 13:45:57;;;;;;;9.43;6.35;;;24.20;55.70;;;;;;4896213;29;20040;-85
2022/10/05 13:48:51;;;;;;;9.90;6.30;;;24.10;55.20;;;;;;4897276;29;20088;-83
2022/10/05 13:51:34;;;;;;;11.15;7.20;;;24.20;55.50;;;;;;4896500;29;20080;-83
2022/10/05 13:54:03;;;;;;;10.48;6.60;;;24.30;55.30;;;;;;4896446;29;20500;-83
2022/10/05 13:56:36;;;;;;;9.32;6.95;;;24.40;55.30;;;;;;4911787;29;20043;-89
2022/10/05 13:59:20;;;;;;;12.95;7.38;;;24.50;55.40;;;;;;4896486;29;20044;-85
2022/10/05 14:01:51;;;;;;;13.45;7.22;;;24.70;55.20;;;;;;4897031;29;20060;-87
2022/10/05 14:04:23;;;;;;;13.88;6.70;;;24.40;55.70;;;;;;4927976;29;20126;-84
2022/10/05 14:06:51;;;;;;;14.45;7.30;;;24.00;56.10;;;;;;4916296;29;20028;-88
2022/10/05 14:09:19;;;;;;;10.75;6.85;;;23.80;56.50;;;;;;4915156;29;20055;-86